createdAt,value
2019-01-10T00:01:05.329Z,4.80
2019-01-10T00:06:13.009Z,6.63
2019-01-10T00:11:20.645Z,7.36
2019-01-10T00:16:28.337Z,6.39
2019-01-10T00:21:35.973Z,8.28
2019-01-10T00:26:43.653Z,7.12
2019-01-10T00:31:51.309Z,7.66
2019-01-10T00:36:59.025Z,6.61
2019-01-10T00:42:06.645Z,6.71
2019-01-10T00:47:14.297Z,7.48
2019-01-10T00:52:21.916Z,8.35
2019-01-10T00:57:29.637Z,7.05
2019-01-10T01:02:37.262Z,6.20
2019-01-10T01:07:45.164Z,7.72
2019-01-10T01:12:58.340Z,9.13
2019-01-10T01:17:59.983Z,6.55
2019-01-10T01:23:07.596Z,8.14
2019-01-10T01:28:15.271Z,7.06
2019-01-10T01:33:22.911Z,6.37
2019-01-10T01:38:30.541Z,7.68
2019-01-10T01:43:38.184Z,7.18
2019-01-10T01:48:45.812Z,7.87
2019-01-10T01:53:53.449Z,8.28
2019-01-10T01:59:01.084Z,7.96
2019-01-10T02:04:08.801Z,8.21
2019-01-10T02:09:16.440Z,9.95
2019-01-10T02:14:24.072Z,9.04
2019-01-10T02:19:31.717Z,9.07
2019-01-10T02:24:39.345Z,7.24
2019-01-10T02:29:47.016Z,8.13
2019-01-10T02:34:54.688Z,5.74
2019-01-10T02:40:02.317Z,6.90
2019-01-10T02:45:09.967Z,7.32
2019-01-10T02:50:17.587Z,8.04
2019-01-10T02:55:25.239Z,7.78
2019-01-10T03:00:32.844Z,9.64
2019-01-10T03:05:40.445Z,9.48
2019-01-10T03:10:48.042Z,6.90
2019-01-10T03:15:55.700Z,8.05
2019-01-10T03:21:03.317Z,8.85
2019-01-10T03:26:11.013Z,8.16
2019-01-10T03:31:18.658Z,8.11
2019-01-10T03:36:26.329Z,5.78
2019-01-10T03:41:33.921Z,6.83
2019-01-10T03:46:41.556Z,6.47
2019-01-10T03:51:49.157Z,6.27
2019-01-10T03:56:56.834Z,6.92
2019-01-10T04:02:04.452Z,7.68
2019-01-10T04:07:12.088Z,6.16
2019-01-10T04:12:19.697Z,5.65
2019-01-10T04:17:27.352Z,8.56
2019-01-10T04:22:35.000Z,6.47
2019-01-10T04:27:42.669Z,6.08
2019-01-10T04:32:50.302Z,5.80
2019-01-10T04:37:57.945Z,6.72
2019-01-10T04:43:05.588Z,8.18
2019-01-10T04:48:13.264Z,10.32
2019-01-10T04:53:20.904Z,7.33
2019-01-10T04:58:28.553Z,5.33
2019-01-10T05:03:36.205Z,7.57
2019-01-10T05:08:43.868Z,7.98
2019-01-10T05:13:51.520Z,6.72
2019-01-10T05:18:59.208Z,7.42
2019-01-10T05:24:06.849Z,4.42
2019-01-10T05:29:14.531Z,5.93
2019-01-10T05:34:22.161Z,9.61
2019-01-10T05:39:29.814Z,7.88
2019-01-10T05:44:37.424Z,8.11
2019-01-10T05:49:59.614Z,11.85
2019-01-10T05:55:07.244Z,15.98
2019-01-10T06:00:14.873Z,19.37
2019-01-10T06:05:22.503Z,11.48
2019-01-10T06:10:30.141Z,11.25
2019-01-10T06:15:37.800Z,13.38
2019-01-10T06:20:45.433Z,13.86
2019-01-10T06:25:53.061Z,13.12
2019-01-10T06:31:00.700Z,15.58
2019-01-10T06:36:08.348Z,14.40
2019-01-10T06:41:17.039Z,13.34
2019-01-10T06:46:23.204Z,17.10
2019-01-10T06:51:30.820Z,14.54
2019-01-10T06:56:38.649Z,19.59
2019-01-10T07:01:46.269Z,21.80
2019-01-10T07:06:54.080Z,18.30
2019-01-10T07:12:01.693Z,19.61
2019-01-10T07:17:09.369Z,17.31
2019-01-10T07:22:16.986Z,14.01
2019-01-10T07:27:24.636Z,12.73
2019-01-10T07:32:32.223Z,15.86
2019-01-10T07:37:39.860Z,11.08
2019-01-10T07:42:47.513Z,16.63
2019-01-10T07:47:55.224Z,13.35
2019-01-10T07:53:02.862Z,14.77
2019-01-10T07:58:10.537Z,16.46
2019-01-10T08:03:18.176Z,18.61
2019-01-10T08:08:25.824Z,16.63
2019-01-10T08:13:33.465Z,14.70
2019-01-10T08:18:41.145Z,14.67
2019-01-10T08:23:48.764Z,17.73
2019-01-10T08:28:56.437Z,14.21
2019-01-10T08:34:04.065Z,14.77
2019-01-10T08:39:11.862Z,14.32
2019-01-10T08:44:19.533Z,16.25
2019-01-10T08:49:27.256Z,19.28
2019-01-10T08:54:34.829Z,16.47
2019-01-10T08:59:42.498Z,16.08
2019-01-10T09:04:50.112Z,18.10
2019-01-10T09:09:57.795Z,19.84
2019-01-10T09:15:05.522Z,15.76
2019-01-10T09:20:13.200Z,16.47
2019-01-10T09:25:20.812Z,16.79
2019-01-10T09:30:28.544Z,16.45
2019-01-10T09:35:35.995Z,13.00
2019-01-10T09:40:43.704Z,19.37
2019-01-10T09:45:51.320Z,19.83
2019-01-10T09:50:59.001Z,18.40
2019-01-10T09:56:06.607Z,13.11
2019-01-10T10:01:14.295Z,15.21
2019-01-10T10:06:21.929Z,18.67
2019-01-10T10:11:34.205Z,17.85
2019-01-10T10:16:36.804Z,19.17
2019-01-10T10:21:44.484Z,17.39
2019-01-10T10:26:52.153Z,13.57
2019-01-10T10:31:59.874Z,17.11
2019-01-10T10:37:07.508Z,15.05
2019-01-10T10:42:15.169Z,15.23
2019-01-10T10:47:22.829Z,17.69
2019-01-10T10:52:30.540Z,15.73
2019-01-10T10:57:38.172Z,20.26
2019-01-10T11:02:45.823Z,14.53
2019-01-10T11:07:53.441Z,12.07
2019-01-10T11:13:01.218Z,16.86
2019-01-10T11:18:08.845Z,16.17
2019-01-10T11:23:16.505Z,23.43
2019-01-10T11:28:24.156Z,27.54
2019-01-10T11:33:31.786Z,16.53
2019-01-10T11:38:39.441Z,16.56
2019-01-10T11:43:47.155Z,16.10
2019-01-10T11:48:54.853Z,15.88
2019-01-10T11:54:02.875Z,13.42
2019-01-10T11:59:10.544Z,16.43
2019-01-10T12:04:18.227Z,13.03
2019-01-10T12:09:25.840Z,13.35
2019-01-10T12:14:33.497Z,14.40
2019-01-10T12:19:41.148Z,11.10
2019-01-10T12:24:48.879Z,10.87
2019-01-10T12:29:56.522Z,8.56
2019-01-10T12:35:04.157Z,10.62
2019-01-10T12:40:11.809Z,10.22
2019-01-10T12:45:19.480Z,11.88
2019-01-10T12:50:27.450Z,12.50
2019-01-10T12:55:37.140Z,12.77
2019-01-10T13:00:44.777Z,11.68
2019-01-10T13:05:52.589Z,10.94
2019-01-10T13:11:00.280Z,11.40
2019-01-10T13:16:07.954Z,11.63
2019-01-10T13:21:15.705Z,8.66
2019-01-10T13:26:23.346Z,9.72
2019-01-10T13:31:31.080Z,10.92
2019-01-10T13:36:38.734Z,8.63
2019-01-10T13:41:46.359Z,7.68
2019-01-10T13:46:55.805Z,9.87
2019-01-10T13:52:01.200Z,8.18
2019-01-10T13:57:08.905Z,8.64
2019-01-10T14:02:16.521Z,9.10
2019-01-10T14:07:24.180Z,11.20
2019-01-10T14:12:31.828Z,9.03
2019-01-10T14:17:39.573Z,11.49
2019-01-10T14:22:47.229Z,6.46
2019-01-10T14:27:59.527Z,6.54
2019-01-10T14:33:02.093Z,8.69
2019-01-10T14:38:09.728Z,9.10
2019-01-10T14:43:17.448Z,7.88
2019-01-10T14:48:25.065Z,7.08
2019-01-10T14:53:32.910Z,6.96
2019-01-10T14:58:40.355Z,10.77
2019-01-10T15:03:48.042Z,10.46
2019-01-10T15:08:55.673Z,8.18
2019-01-10T15:14:03.416Z,6.52
2019-01-10T15:19:11.076Z,6.82
2019-01-10T15:24:18.757Z,12.55
2019-01-10T15:29:26.396Z,8.62
2019-01-10T15:34:34.104Z,7.90
2019-01-10T15:39:41.738Z,10.09
2019-01-10T15:44:49.452Z,8.25
2019-01-10T15:49:57.088Z,9.01
2019-01-10T15:55:04.721Z,6.80
2019-01-10T16:00:12.397Z,8.91
2019-01-10T16:05:20.021Z,9.93
2019-01-10T16:10:27.682Z,9.51
2019-01-10T16:15:35.345Z,7.38
2019-01-10T16:20:43.060Z,9.36
2019-01-10T16:25:50.702Z,4.79
2019-01-10T16:30:58.343Z,4.11
2019-01-10T16:36:05.996Z,5.62
2019-01-10T16:41:13.744Z,3.96
2019-01-10T16:46:21.372Z,3.82
2019-01-10T16:51:29.119Z,5.70
2019-01-10T16:56:36.754Z,3.16
2019-01-10T17:01:44.511Z,3.89
2019-01-10T17:06:52.180Z,4.50
2019-01-10T17:11:59.880Z,6.52
2019-01-10T17:17:07.535Z,5.20
2019-01-10T17:22:15.202Z,6.22
2019-01-10T17:27:22.850Z,3.55
2019-01-10T17:32:30.589Z,6.97
2019-01-10T17:37:38.225Z,4.76
2019-01-10T17:42:45.935Z,8.98
2019-01-10T17:47:53.561Z,5.46
2019-01-10T17:53:01.243Z,5.78
2019-01-10T17:58:08.869Z,5.18
2019-01-10T18:03:16.570Z,5.24
2019-01-10T18:08:24.185Z,5.81
2019-01-10T18:13:31.824Z,7.86
2019-01-10T18:18:39.504Z,7.96
2019-01-10T18:23:47.132Z,9.85
2019-01-10T18:28:54.756Z,6.12
2019-01-10T18:34:02.390Z,6.47
2019-01-10T18:39:10.072Z,8.18
2019-01-10T18:44:17.706Z,8.86
2019-01-10T18:49:25.476Z,8.26
2019-01-10T18:54:33.097Z,8.01
2019-01-10T18:59:40.777Z,10.91
2019-01-10T19:04:48.384Z,7.52
2019-01-10T19:09:56.037Z,12.90
2019-01-10T19:15:03.688Z,9.87
2019-01-10T19:20:11.304Z,8.69
2019-01-10T19:25:18.937Z,10.11
2019-01-10T19:30:26.576Z,10.62
2019-01-10T19:35:34.208Z,11.49
2019-01-10T19:40:41.878Z,10.80
2019-01-10T19:45:49.585Z,10.94
2019-01-10T19:50:57.226Z,13.60
2019-01-10T19:56:04.845Z,10.49
2019-01-10T20:01:12.529Z,11.58
2019-01-10T20:06:20.168Z,12.12
2019-01-10T20:11:27.796Z,11.09
2019-01-10T20:16:35.492Z,9.76
2019-01-10T20:21:43.113Z,10.13
2019-01-10T20:26:50.817Z,13.49
2019-01-10T20:31:58.488Z,10.66
2019-01-10T20:37:06.208Z,10.81
2019-01-10T20:42:13.845Z,11.11
2019-01-10T20:47:21.569Z,13.66
2019-01-10T20:52:29.200Z,13.58
2019-01-10T20:57:36.846Z,11.16
2019-01-10T21:02:44.553Z,14.54
2019-01-10T21:07:52.177Z,12.49
2019-01-10T21:12:59.885Z,15.57
2019-01-10T21:18:07.521Z,12.32
2019-01-10T21:23:15.215Z,14.57
2019-01-10T21:28:22.861Z,15.56
2019-01-10T21:33:30.575Z,15.28
2019-01-10T21:38:38.209Z,17.25
2019-01-10T21:43:45.909Z,15.77
2019-01-10T21:48:53.540Z,15.85
2019-01-10T21:54:01.240Z,19.87
2019-01-10T21:59:08.867Z,18.70
2019-01-10T22:04:16.576Z,20.35
2019-01-10T22:09:24.217Z,21.57
2019-01-10T22:14:33.131Z,18.20
2019-01-10T22:19:39.109Z,21.39
2019-01-10T22:24:46.741Z,22.20
2019-01-10T22:29:54.392Z,24.22
2019-01-10T22:35:02.000Z,23.98
2019-01-10T22:40:09.752Z,29.19
2019-01-10T22:45:17.392Z,29.93
2019-01-10T22:50:25.116Z,36.45
2019-01-10T22:55:32.744Z,36.17
2019-01-10T23:00:40.397Z,30.13
2019-01-10T23:05:48.028Z,32.86
2019-01-10T23:10:55.668Z,38.46
2019-01-10T23:16:03.316Z,44.80
2019-01-10T23:21:11.016Z,38.83
2019-01-10T23:26:18.629Z,37.43
2019-01-10T23:31:26.248Z,39.28
2019-01-10T23:36:33.893Z,42.10
2019-01-10T23:41:41.578Z,46.25
2019-01-10T23:46:49.217Z,41.18
2019-01-10T23:51:56.892Z,45.51
2019-01-10T23:57:04.537Z,43.32
